Toronto, Illinois
Current Conditions -  °F | °C
As of 1:18 PM on Thursday 27 Nov 2014 (Local Time) from KSPI Reporting Station
Light Snow Light Snow  
Wind Chill: 15°   Ceiling: 2100
Heat Index: 26°   Visibility: 9mi
Dew Point: 18°   Wind: 13mph
Humidity: 71%   Direction: 310°NW
Pressure: 30.44"   Gusts: NA
Location:  39.854°N, 89.6295°W
Report Text: KSPI 271918Z 31011KT 9SM -SN BKN021 M03/M08 A3044 RMK AO2 P0000 T10331078
Loading
Personal Weather Stations






























Interactive Weather Map New forecast layout! Learn more

10-Day Weather Forecast

Advertisements
Track Severe Weather on mobile